sensor_id;sensor_type;location;lat;lon;timestamp;P1;durP1;ratioP1;P2;durP2;ratioP2
25511;SDS011;13414;44.534;18.700;2022-12-18T00:01:38;25.00;;;16.30;;
25511;SDS011;13414;44.534;18.700;2022-12-18T00:04:06;24.98;;;15.35;;
25511;SDS011;13414;44.534;18.700;2022-12-18T00:06:39;22.77;;;14.18;;
25511;SDS011;13414;44.534;18.700;2022-12-18T00:09:06;21.25;;;13.38;;
25511;SDS011;13414;44.534;18.700;2022-12-18T00:11:35;20.95;;;12.27;;
25511;SDS011;13414;44.534;18.700;2022-12-18T00:14:04;21.77;;;13.85;;
25511;SDS011;13414;44.534;18.700;2022-12-18T00:16:31;19.60;;;12.65;;
25511;SDS011;13414;44.534;18.700;2022-12-18T00:19:00;19.70;;;12.82;;
25511;SDS011;13414;44.534;18.700;2022-12-18T00:21:28;20.48;;;12.68;;
25511;SDS011;13414;44.534;18.700;2022-12-18T00:23:56;19.98;;;12.75;;
25511;SDS011;13414;44.534;18.700;2022-12-18T00:26:25;20.92;;;13.00;;
25511;SDS011;13414;44.534;18.700;2022-12-18T00:28:57;24.95;;;14.52;;
25511;SDS011;13414;44.534;18.700;2022-12-18T00:31:27;25.38;;;15.80;;
25511;SDS011;13414;44.534;18.700;2022-12-18T00:33:55;24.85;;;15.05;;
25511;SDS011;13414;44.534;18.700;2022-12-18T00:36:23;26.48;;;15.25;;
25511;SDS011;13414;44.534;18.700;2022-12-18T00:38:53;25.88;;;15.50;;
25511;SDS011;13414;44.534;18.700;2022-12-18T00:41:22;22.15;;;14.02;;
25511;SDS011;13414;44.534;18.700;2022-12-18T00:44:08;20.58;;;13.18;;
25511;SDS011;13414;44.534;18.700;2022-12-18T00:46:38;18.48;;;12.65;;
25511;SDS011;13414;44.534;18.700;2022-12-18T00:49:06;17.92;;;11.90;;
25511;SDS011;13414;44.534;18.700;2022-12-18T00:51:33;18.02;;;12.18;;
25511;SDS011;13414;44.534;18.700;2022-12-18T00:54:01;17.38;;;12.20;;
25511;SDS011;13414;44.534;18.700;2022-12-18T00:56:30;18.30;;;11.52;;
25511;SDS011;13414;44.534;18.700;2022-12-18T00:58:58;25.05;;;15.30;;
25511;SDS011;13414;44.534;18.700;2022-12-18T01:01:25;18.33;;;12.57;;
25511;SDS011;13414;44.534;18.700;2022-12-18T01:03:55;20.73;;;12.65;;
25511;SDS011;13414;44.534;18.700;2022-12-18T01:06:24;31.42;;;18.20;;
25511;SDS011;13414;44.534;18.700;2022-12-18T01:08:51;26.45;;;15.95;;
25511;SDS011;13414;44.534;18.700;2022-12-18T01:11:19;24.90;;;14.25;;
25511;SDS011;13414;44.534;18.700;2022-12-18T01:13:47;21.33;;;13.70;;
25511;SDS011;13414;44.534;18.700;2022-12-18T01:16:15;23.02;;;13.32;;
25511;SDS011;13414;44.534;18.700;2022-12-18T01:18:43;22.23;;;13.90;;
25511;SDS011;13414;44.534;18.700;2022-12-18T01:21:13;24.05;;;13.82;;
25511;SDS011;13414;44.534;18.700;2022-12-18T01:23:45;24.35;;;14.52;;
25511;SDS011;13414;44.534;18.700;2022-12-18T01:26:13;23.63;;;14.23;;
25511;SDS011;13414;44.534;18.700;2022-12-18T01:28:42;21.60;;;14.07;;
25511;SDS011;13414;44.534;18.700;2022-12-18T01:31:14;23.95;;;14.52;;
25511;SDS011;13414;44.534;18.700;2022-12-18T01:33:43;23.33;;;14.52;;
25511;SDS011;13414;44.534;18.700;2022-12-18T01:36:17;26.77;;;15.27;;
25511;SDS011;13414;44.534;18.700;2022-12-18T01:38:46;24.70;;;15.35;;
25511;SDS011;13414;44.534;18.700;2022-12-18T01:41:14;29.08;;;18.02;;
25511;SDS011;13414;44.534;18.700;2022-12-18T01:43:43;24.80;;;15.30;;
25511;SDS011;13414;44.534;18.700;2022-12-18T01:46:13;23.67;;;14.90;;
25511;SDS011;13414;44.534;18.700;2022-12-18T01:48:41;22.77;;;13.90;;
25511;SDS011;13414;44.534;18.700;2022-12-18T01:51:10;24.73;;;13.93;;
25511;SDS011;13414;44.534;18.700;2022-12-18T01:53:41;20.00;;;13.07;;
25511;SDS011;13414;44.534;18.700;2022-12-18T01:56:12;22.90;;;13.98;;
25511;SDS011;13414;44.534;18.700;2022-12-18T01:58:42;27.80;;;15.27;;
25511;SDS011;13414;44.534;18.700;2022-12-18T02:01:15;27.63;;;16.98;;
25511;SDS011;13414;44.534;18.700;2022-12-18T02:03:42;53.85;;;29.17;;
25511;SDS011;13414;44.534;18.700;2022-12-18T02:06:12;51.00;;;27.70;;
25511;SDS011;13414;44.534;18.700;2022-12-18T02:08:48;40.65;;;23.20;;
25511;SDS011;13414;44.534;18.700;2022-12-18T02:11:31;37.08;;;20.80;;
25511;SDS011;13414;44.534;18.700;2022-12-18T02:14:08;30.23;;;18.27;;
25511;SDS011;13414;44.534;18.700;2022-12-18T02:16:45;33.78;;;19.85;;
25511;SDS011;13414;44.534;18.700;2022-12-18T02:19:27;37.47;;;22.88;;
25511;SDS011;13414;44.534;18.700;2022-12-18T02:22:08;42.35;;;26.98;;
25511;SDS011;13414;44.534;18.700;2022-12-18T02:24:51;50.40;;;31.30;;
25511;SDS011;13414;44.534;18.700;2022-12-18T02:27:28;45.90;;;27.88;;
25511;SDS011;13414;44.534;18.700;2022-12-18T02:29:59;48.92;;;28.60;;
25511;SDS011;13414;44.534;18.700;2022-12-18T02:32:29;42.30;;;26.38;;
25511;SDS011;13414;44.534;18.700;2022-12-18T02:35:00;42.90;;;24.52;;
25511;SDS011;13414;44.534;18.700;2022-12-18T02:37:32;43.67;;;25.98;;
25511;SDS011;13414;44.534;18.700;2022-12-18T02:40:05;43.15;;;26.20;;
25511;SDS011;13414;44.534;18.700;2022-12-18T02:42:38;44.53;;;26.85;;
25511;SDS011;13414;44.534;18.700;2022-12-18T02:45:07;54.08;;;28.23;;
25511;SDS011;13414;44.534;18.700;2022-12-18T02:47:36;45.65;;;27.63;;
25511;SDS011;13414;44.534;18.700;2022-12-18T02:50:07;42.75;;;26.20;;
25511;SDS011;13414;44.534;18.700;2022-12-18T02:52:43;46.83;;;28.75;;
25511;SDS011;13414;44.534;18.700;2022-12-18T02:55:20;53.45;;;31.63;;
25511;SDS011;13414;44.534;18.700;2022-12-18T02:58:05;52.20;;;31.43;;
25511;SDS011;13414;44.534;18.700;2022-12-18T03:00:41;48.50;;;29.33;;
25511;SDS011;13414;44.534;18.700;2022-12-18T03:03:14;49.00;;;29.73;;
25511;SDS011;13414;44.534;18.700;2022-12-18T03:05:46;49.33;;;29.13;;
25511;SDS011;13414;44.534;18.700;2022-12-18T03:08:18;43.75;;;27.95;;
25511;SDS011;13414;44.534;18.700;2022-12-18T03:10:49;44.35;;;25.58;;
25511;SDS011;13414;44.534;18.700;2022-12-18T03:13:23;42.22;;;26.50;;
25511;SDS011;13414;44.534;18.700;2022-12-18T03:15:58;43.60;;;27.77;;
25511;SDS011;13414;44.534;18.700;2022-12-18T03:18:29;48.05;;;28.00;;
25511;SDS011;13414;44.534;18.700;2022-12-18T03:21:00;50.45;;;29.58;;
25511;SDS011;13414;44.534;18.700;2022-12-18T03:23:35;52.80;;;29.95;;
25511;SDS011;13414;44.534;18.700;2022-12-18T03:26:11;51.63;;;31.05;;
25511;SDS011;13414;44.534;18.700;2022-12-18T03:28:44;65.82;;;37.60;;
25511;SDS011;13414;44.534;18.700;2022-12-18T03:31:17;56.72;;;33.13;;
25511;SDS011;13414;44.534;18.700;2022-12-18T03:33:51;50.80;;;30.50;;
25511;SDS011;13414;44.534;18.700;2022-12-18T03:36:26;48.07;;;29.03;;
25511;SDS011;13414;44.534;18.700;2022-12-18T03:39:01;50.35;;;30.23;;
25511;SDS011;13414;44.534;18.700;2022-12-18T03:41:33;46.95;;;27.05;;
25511;SDS011;13414;44.534;18.700;2022-12-18T03:44:35;41.17;;;24.27;;
25511;SDS011;13414;44.534;18.700;2022-12-18T03:47:07;44.75;;;25.92;;
25511;SDS011;13414;44.534;18.700;2022-12-18T03:49:44;41.60;;;24.60;;
25511;SDS011;13414;44.534;18.700;2022-12-18T03:52:17;40.30;;;22.83;;
25511;SDS011;13414;44.534;18.700;2022-12-18T03:54:50;41.58;;;24.45;;
25511;SDS011;13414;44.534;18.700;2022-12-18T03:57:20;39.33;;;23.30;;
25511;SDS011;13414;44.534;18.700;2022-12-18T03:59:54;43.35;;;25.52;;
25511;SDS011;13414;44.534;18.700;2022-12-18T04:02:28;42.58;;;24.38;;
25511;SDS011;13414;44.534;18.700;2022-12-18T04:05:00;47.33;;;26.60;;
25511;SDS011;13414;44.534;18.700;2022-12-18T04:07:32;42.42;;;24.83;;
25511;SDS011;13414;44.534;18.700;2022-12-18T04:10:00;41.60;;;26.23;;
25511;SDS011;13414;44.534;18.700;2022-12-18T04:12:31;40.25;;;25.45;;
25511;SDS011;13414;44.534;18.700;2022-12-18T04:15:00;47.30;;;26.45;;
25511;SDS011;13414;44.534;18.700;2022-12-18T04:17:27;47.28;;;25.98;;
25511;SDS011;13414;44.534;18.700;2022-12-18T04:19:56;43.70;;;26.55;;
25511;SDS011;13414;44.534;18.700;2022-12-18T04:22:24;44.50;;;25.75;;
25511;SDS011;13414;44.534;18.700;2022-12-18T04:24:57;40.05;;;23.77;;
25511;SDS011;13414;44.534;18.700;2022-12-18T04:27:31;41.53;;;25.13;;
25511;SDS011;13414;44.534;18.700;2022-12-18T04:30:00;43.03;;;24.95;;
25511;SDS011;13414;44.534;18.700;2022-12-18T04:32:29;44.90;;;26.08;;
25511;SDS011;13414;44.534;18.700;2022-12-18T04:34:56;43.88;;;26.58;;
25511;SDS011;13414;44.534;18.700;2022-12-18T04:37:24;47.50;;;26.55;;
25511;SDS011;13414;44.534;18.700;2022-12-18T04:39:51;47.58;;;28.45;;
25511;SDS011;13414;44.534;18.700;2022-12-18T04:42:26;45.85;;;28.05;;
25511;SDS011;13414;44.534;18.700;2022-12-18T04:44:53;44.53;;;28.17;;
25511;SDS011;13414;44.534;18.700;2022-12-18T04:47:22;44.90;;;27.13;;
25511;SDS011;13414;44.534;18.700;2022-12-18T04:49:49;45.80;;;28.92;;
25511;SDS011;13414;44.534;18.700;2022-12-18T04:52:17;43.55;;;25.63;;
25511;SDS011;13414;44.534;18.700;2022-12-18T04:54:44;48.60;;;28.35;;
25511;SDS011;13414;44.534;18.700;2022-12-18T04:57:11;47.45;;;25.65;;
25511;SDS011;13414;44.534;18.700;2022-12-18T04:59:39;48.47;;;25.40;;
25511;SDS011;13414;44.534;18.700;2022-12-18T05:02:06;46.45;;;26.83;;
25511;SDS011;13414;44.534;18.700;2022-12-18T05:04:35;44.05;;;25.95;;
25511;SDS011;13414;44.534;18.700;2022-12-18T05:07:02;44.38;;;25.83;;
25511;SDS011;13414;44.534;18.700;2022-12-18T05:09:30;48.15;;;27.75;;
25511;SDS011;13414;44.534;18.700;2022-12-18T05:11:58;45.83;;;27.02;;
25511;SDS011;13414;44.534;18.700;2022-12-18T05:14:25;46.17;;;27.83;;
25511;SDS011;13414;44.534;18.700;2022-12-18T05:16:54;47.60;;;28.00;;
25511;SDS011;13414;44.534;18.700;2022-12-18T05:19:22;51.55;;;28.75;;
25511;SDS011;13414;44.534;18.700;2022-12-18T05:21:50;56.50;;;29.92;;
25511;SDS011;13414;44.534;18.700;2022-12-18T05:24:18;55.28;;;30.73;;
25511;SDS011;13414;44.534;18.700;2022-12-18T05:26:45;50.88;;;29.40;;
25511;SDS011;13414;44.534;18.700;2022-12-18T05:29:12;51.00;;;28.92;;
25511;SDS011;13414;44.534;18.700;2022-12-18T05:31:40;50.85;;;28.00;;
25511;SDS011;13414;44.534;18.700;2022-12-18T05:34:07;41.13;;;25.52;;
25511;SDS011;13414;44.534;18.700;2022-12-18T05:36:34;42.00;;;24.80;;
25511;SDS011;13414;44.534;18.700;2022-12-18T05:39:03;39.35;;;22.67;;
25511;SDS011;13414;44.534;18.700;2022-12-18T05:41:31;39.05;;;22.80;;
25511;SDS011;13414;44.534;18.700;2022-12-18T05:43:58;38.72;;;23.15;;
25511;SDS011;13414;44.534;18.700;2022-12-18T05:46:26;37.03;;;22.38;;
25511;SDS011;13414;44.534;18.700;2022-12-18T05:48:54;39.38;;;21.80;;
25511;SDS011;13414;44.534;18.700;2022-12-18T05:51:22;39.42;;;23.08;;
25511;SDS011;13414;44.534;18.700;2022-12-18T05:53:49;36.35;;;21.63;;
25511;SDS011;13414;44.534;18.700;2022-12-18T05:56:19;36.38;;;20.95;;
25511;SDS011;13414;44.534;18.700;2022-12-18T05:58:50;31.52;;;19.40;;
25511;SDS011;13414;44.534;18.700;2022-12-18T06:01:20;31.90;;;18.33;;
25511;SDS011;13414;44.534;18.700;2022-12-18T06:03:49;30.45;;;18.55;;
25511;SDS011;13414;44.534;18.700;2022-12-18T06:06:17;31.50;;;20.02;;
25511;SDS011;13414;44.534;18.700;2022-12-18T06:08:46;29.20;;;19.08;;
25511;SDS011;13414;44.534;18.700;2022-12-18T06:11:15;28.80;;;18.88;;
25511;SDS011;13414;44.534;18.700;2022-12-18T06:13:45;30.73;;;19.05;;
25511;SDS011;13414;44.534;18.700;2022-12-18T06:16:12;29.42;;;19.55;;
25511;SDS011;13414;44.534;18.700;2022-12-18T06:18:40;32.65;;;21.58;;
25511;SDS011;13414;44.534;18.700;2022-12-18T06:21:08;28.70;;;19.80;;
25511;SDS011;13414;44.534;18.700;2022-12-18T06:23:35;31.33;;;21.33;;
25511;SDS011;13414;44.534;18.700;2022-12-18T06:26:03;31.83;;;21.40;;
25511;SDS011;13414;44.534;18.700;2022-12-18T06:28:33;32.80;;;20.88;;
25511;SDS011;13414;44.534;18.700;2022-12-18T06:31:02;32.83;;;20.73;;
25511;SDS011;13414;44.534;18.700;2022-12-18T06:33:29;29.30;;;19.50;;
25511;SDS011;13414;44.534;18.700;2022-12-18T06:35:59;31.75;;;20.90;;
25511;SDS011;13414;44.534;18.700;2022-12-18T06:38:27;36.65;;;23.77;;
25511;SDS011;13414;44.534;18.700;2022-12-18T06:40:55;34.00;;;23.38;;
25511;SDS011;13414;44.534;18.700;2022-12-18T06:43:22;44.33;;;27.77;;
25511;SDS011;13414;44.534;18.700;2022-12-18T06:45:51;41.42;;;27.25;;
25511;SDS011;13414;44.534;18.700;2022-12-18T06:48:27;38.42;;;23.92;;
25511;SDS011;13414;44.534;18.700;2022-12-18T06:50:55;39.60;;;24.98;;
25511;SDS011;13414;44.534;18.700;2022-12-18T06:53:23;44.47;;;29.05;;
25511;SDS011;13414;44.534;18.700;2022-12-18T06:55:50;45.40;;;29.48;;
25511;SDS011;13414;44.534;18.700;2022-12-18T06:58:17;33.35;;;22.73;;
25511;SDS011;13414;44.534;18.700;2022-12-18T07:00:45;37.90;;;24.02;;
25511;SDS011;13414;44.534;18.700;2022-12-18T07:03:14;36.67;;;22.30;;
25511;SDS011;13414;44.534;18.700;2022-12-18T07:05:42;43.15;;;27.98;;
25511;SDS011;13414;44.534;18.700;2022-12-18T07:08:09;54.88;;;33.60;;
25511;SDS011;13414;44.534;18.700;2022-12-18T07:10:40;55.50;;;34.72;;
25511;SDS011;13414;44.534;18.700;2022-12-18T07:13:08;59.83;;;36.78;;
25511;SDS011;13414;44.534;18.700;2022-12-18T07:15:36;57.33;;;33.35;;
25511;SDS011;13414;44.534;18.700;2022-12-18T07:18:03;57.35;;;34.88;;
25511;SDS011;13414;44.534;18.700;2022-12-18T07:20:32;66.38;;;37.75;;
25511;SDS011;13414;44.534;18.700;2022-12-18T07:23:01;53.00;;;30.40;;
25511;SDS011;13414;44.534;18.700;2022-12-18T07:25:30;60.00;;;34.78;;
25511;SDS011;13414;44.534;18.700;2022-12-18T07:27:59;46.85;;;27.58;;
25511;SDS011;13414;44.534;18.700;2022-12-18T07:30:27;44.55;;;27.05;;
25511;SDS011;13414;44.534;18.700;2022-12-18T07:32:54;48.80;;;25.92;;
25511;SDS011;13414;44.534;18.700;2022-12-18T07:35:21;40.13;;;23.90;;
25511;SDS011;13414;44.534;18.700;2022-12-18T07:37:50;42.97;;;23.05;;
25511;SDS011;13414;44.534;18.700;2022-12-18T07:40:18;36.35;;;22.27;;
25511;SDS011;13414;44.534;18.700;2022-12-18T07:42:45;37.22;;;23.35;;
25511;SDS011;13414;44.534;18.700;2022-12-18T07:45:20;43.58;;;25.10;;
25511;SDS011;13414;44.534;18.700;2022-12-18T07:47:50;76.53;;;46.45;;
25511;SDS011;13414;44.534;18.700;2022-12-18T07:50:17;95.00;;;59.72;;
25511;SDS011;13414;44.534;18.700;2022-12-18T07:52:45;154.60;;;106.60;;
25511;SDS011;13414;44.534;18.700;2022-12-18T07:55:14;61.17;;;39.10;;
25511;SDS011;13414;44.534;18.700;2022-12-18T07:57:41;54.45;;;34.53;;
25511;SDS011;13414;44.534;18.700;2022-12-18T08:00:10;75.57;;;48.58;;
25511;SDS011;13414;44.534;18.700;2022-12-18T08:02:39;82.97;;;53.30;;
25511;SDS011;13414;44.534;18.700;2022-12-18T08:05:06;107.22;;;66.20;;
25511;SDS011;13414;44.534;18.700;2022-12-18T08:07:34;110.18;;;66.93;;
25511;SDS011;13414;44.534;18.700;2022-12-18T08:10:02;98.28;;;58.78;;
25511;SDS011;13414;44.534;18.700;2022-12-18T08:12:31;107.63;;;68.95;;
25511;SDS011;13414;44.534;18.700;2022-12-18T08:14:58;113.10;;;70.88;;
25511;SDS011;13414;44.534;18.700;2022-12-18T08:17:26;114.50;;;72.25;;
25511;SDS011;13414;44.534;18.700;2022-12-18T08:19:53;111.03;;;70.70;;
25511;SDS011;13414;44.534;18.700;2022-12-18T08:22:20;109.07;;;73.25;;
25511;SDS011;13414;44.534;18.700;2022-12-18T08:24:48;110.43;;;73.32;;
25511;SDS011;13414;44.534;18.700;2022-12-18T08:27:15;101.35;;;68.38;;
25511;SDS011;13414;44.534;18.700;2022-12-18T08:29:45;141.27;;;86.78;;
25511;SDS011;13414;44.534;18.700;2022-12-18T08:32:12;135.68;;;79.00;;
25511;SDS011;13414;44.534;18.700;2022-12-18T08:34:40;124.90;;;73.72;;
25511;SDS011;13414;44.534;18.700;2022-12-18T08:37:07;104.38;;;66.55;;
25511;SDS011;13414;44.534;18.700;2022-12-18T08:39:34;106.80;;;65.78;;
25511;SDS011;13414;44.534;18.700;2022-12-18T08:42:02;78.28;;;48.08;;
25511;SDS011;13414;44.534;18.700;2022-12-18T08:44:49;70.63;;;44.17;;
25511;SDS011;13414;44.534;18.700;2022-12-18T08:47:16;79.20;;;50.35;;
25511;SDS011;13414;44.534;18.700;2022-12-18T08:49:44;67.80;;;43.90;;
25511;SDS011;13414;44.534;18.700;2022-12-18T08:52:14;71.82;;;44.42;;
25511;SDS011;13414;44.534;18.700;2022-12-18T08:54:42;62.30;;;38.63;;
25511;SDS011;13414;44.534;18.700;2022-12-18T08:57:09;64.53;;;41.00;;
25511;SDS011;13414;44.534;18.700;2022-12-18T08:59:36;67.22;;;38.45;;
25511;SDS011;13414;44.534;18.700;2022-12-18T09:02:05;48.65;;;29.75;;
25511;SDS011;13414;44.534;18.700;2022-12-18T09:04:34;46.45;;;25.70;;
25511;SDS011;13414;44.534;18.700;2022-12-18T09:07:01;48.80;;;24.13;;
25511;SDS011;13414;44.534;18.700;2022-12-18T09:09:29;53.15;;;30.05;;
25511;SDS011;13414;44.534;18.700;2022-12-18T09:11:56;42.28;;;23.63;;
25511;SDS011;13414;44.534;18.700;2022-12-18T09:14:25;34.65;;;20.27;;
25511;SDS011;13414;44.534;18.700;2022-12-18T09:16:52;30.00;;;18.38;;
25511;SDS011;13414;44.534;18.700;2022-12-18T09:19:21;35.13;;;21.75;;
25511;SDS011;13414;44.534;18.700;2022-12-18T09:21:48;42.10;;;24.05;;
25511;SDS011;13414;44.534;18.700;2022-12-18T09:24:17;42.95;;;24.20;;
25511;SDS011;13414;44.534;18.700;2022-12-18T09:26:44;44.63;;;25.63;;
25511;SDS011;13414;44.534;18.700;2022-12-18T09:29:12;48.10;;;26.75;;
25511;SDS011;13414;44.534;18.700;2022-12-18T09:31:39;49.30;;;28.05;;
25511;SDS011;13414;44.534;18.700;2022-12-18T09:34:07;46.78;;;27.92;;
25511;SDS011;13414;44.534;18.700;2022-12-18T09:36:36;52.20;;;29.95;;
25511;SDS011;13414;44.534;18.700;2022-12-18T09:39:04;54.95;;;30.48;;
25511;SDS011;13414;44.534;18.700;2022-12-18T09:41:37;50.40;;;30.08;;
25511;SDS011;13414;44.534;18.700;2022-12-18T09:44:11;52.88;;;30.42;;
25511;SDS011;13414;44.534;18.700;2022-12-18T09:46:45;56.88;;;31.85;;
25511;SDS011;13414;44.534;18.700;2022-12-18T09:49:15;51.60;;;30.40;;
25511;SDS011;13414;44.534;18.700;2022-12-18T09:51:47;55.47;;;32.08;;
25511;SDS011;13414;44.534;18.700;2022-12-18T09:54:20;58.28;;;32.08;;
25511;SDS011;13414;44.534;18.700;2022-12-18T09:56:51;60.20;;;33.80;;
25511;SDS011;13414;44.534;18.700;2022-12-18T09:59:21;63.42;;;36.08;;
25511;SDS011;13414;44.534;18.700;2022-12-18T10:01:51;64.60;;;36.33;;
25511;SDS011;13414;44.534;18.700;2022-12-18T10:04:19;66.57;;;35.63;;
25511;SDS011;13414;44.534;18.700;2022-12-18T10:06:51;67.05;;;39.10;;
25511;SDS011;13414;44.534;18.700;2022-12-18T10:09:27;71.20;;;38.03;;
25511;SDS011;13414;44.534;18.700;2022-12-18T10:12:02;66.68;;;38.33;;
25511;SDS011;13414;44.534;18.700;2022-12-18T10:14:36;62.67;;;35.78;;
25511;SDS011;13414;44.534;18.700;2022-12-18T10:17:14;71.40;;;39.58;;
25511;SDS011;13414;44.534;18.700;2022-12-18T10:19:50;78.00;;;42.35;;
25511;SDS011;13414;44.534;18.700;2022-12-18T10:22:28;74.38;;;40.75;;
25511;SDS011;13414;44.534;18.700;2022-12-18T10:25:10;72.83;;;40.30;;
25511;SDS011;13414;44.534;18.700;2022-12-18T10:27:45;77.38;;;40.88;;
25511;SDS011;13414;44.534;18.700;2022-12-18T10:30:14;68.63;;;39.42;;
25511;SDS011;13414;44.534;18.700;2022-12-18T10:32:43;70.03;;;39.53;;
25511;SDS011;13414;44.534;18.700;2022-12-18T10:35:11;65.65;;;39.42;;
25511;SDS011;13414;44.534;18.700;2022-12-18T10:38:02;68.72;;;39.33;;
25511;SDS011;13414;44.534;18.700;2022-12-18T10:40:32;60.42;;;36.70;;
25511;SDS011;13414;44.534;18.700;2022-12-18T10:43:15;68.40;;;38.78;;
25511;SDS011;13414;44.534;18.700;2022-12-18T10:45:57;60.00;;;35.05;;
25511;SDS011;13414;44.534;18.700;2022-12-18T10:48:39;61.78;;;35.60;;
25511;SDS011;13414;44.534;18.700;2022-12-18T10:51:19;62.75;;;36.42;;
25511;SDS011;13414;44.534;18.700;2022-12-18T10:53:52;60.50;;;35.45;;
25511;SDS011;13414;44.534;18.700;2022-12-18T10:56:22;66.40;;;35.28;;
25511;SDS011;13414;44.534;18.700;2022-12-18T10:58:56;53.92;;;31.00;;
25511;SDS011;13414;44.534;18.700;2022-12-18T11:01:25;53.72;;;30.65;;
25511;SDS011;13414;44.534;18.700;2022-12-18T11:04:00;51.30;;;30.60;;
25511;SDS011;13414;44.534;18.700;2022-12-18T11:06:34;50.42;;;29.70;;
25511;SDS011;13414;44.534;18.700;2022-12-18T11:09:20;47.30;;;29.45;;
25511;SDS011;13414;44.534;18.700;2022-12-18T11:11:49;50.28;;;30.00;;
25511;SDS011;13414;44.534;18.700;2022-12-18T11:14:20;51.42;;;31.17;;
25511;SDS011;13414;44.534;18.700;2022-12-18T11:16:50;54.45;;;31.58;;
25511;SDS011;13414;44.534;18.700;2022-12-18T11:19:28;47.85;;;28.52;;
25511;SDS011;13414;44.534;18.700;2022-12-18T11:22:00;47.72;;;27.15;;
25511;SDS011;13414;44.534;18.700;2022-12-18T11:24:30;44.53;;;26.95;;
25511;SDS011;13414;44.534;18.700;2022-12-18T11:27:00;44.63;;;26.52;;
25511;SDS011;13414;44.534;18.700;2022-12-18T11:29:31;40.05;;;24.08;;
25511;SDS011;13414;44.534;18.700;2022-12-18T11:35:02;39.97;;;24.08;;
25511;SDS011;13414;44.534;18.700;2022-12-18T11:37:37;40.42;;;24.70;;
25511;SDS011;13414;44.534;18.700;2022-12-18T11:40:11;35.30;;;21.67;;
25511;SDS011;13414;44.534;18.700;2022-12-18T11:42:44;37.60;;;22.45;;
25511;SDS011;13414;44.534;18.700;2022-12-18T11:45:22;48.65;;;24.15;;
25511;SDS011;13414;44.534;18.700;2022-12-18T11:48:01;35.03;;;21.80;;
25511;SDS011;13414;44.534;18.700;2022-12-18T11:50:32;36.88;;;23.23;;
25511;SDS011;13414;44.534;18.700;2022-12-18T11:53:09;43.05;;;25.20;;
25511;SDS011;13414;44.534;18.700;2022-12-18T11:55:41;44.10;;;25.58;;
25511;SDS011;13414;44.534;18.700;2022-12-18T11:58:18;40.60;;;23.40;;
25511;SDS011;13414;44.534;18.700;2022-12-18T12:01:00;37.08;;;21.88;;
25511;SDS011;13414;44.534;18.700;2022-12-18T12:03:45;39.55;;;22.70;;
25511;SDS011;13414;44.534;18.700;2022-12-18T12:06:24;39.88;;;21.88;;
25511;SDS011;13414;44.534;18.700;2022-12-18T12:11:37;40.38;;;23.73;;
25511;SDS011;13414;44.534;18.700;2022-12-18T12:17:24;42.00;;;23.88;;
25511;SDS011;13414;44.534;18.700;2022-12-18T12:20:03;35.90;;;21.17;;
25511;SDS011;13414;44.534;18.700;2022-12-18T12:22:40;34.95;;;20.42;;
25511;SDS011;13414;44.534;18.700;2022-12-18T12:25:18;35.63;;;19.92;;
25511;SDS011;13414;44.534;18.700;2022-12-18T12:27:57;36.00;;;20.45;;
25511;SDS011;13414;44.534;18.700;2022-12-18T12:30:35;36.22;;;17.98;;
25511;SDS011;13414;44.534;18.700;2022-12-18T12:33:14;30.83;;;17.77;;
25511;SDS011;13414;44.534;18.700;2022-12-18T12:35:52;35.22;;;18.38;;
25511;SDS011;13414;44.534;18.700;2022-12-18T12:38:29;31.13;;;16.20;;
25511;SDS011;13414;44.534;18.700;2022-12-18T12:41:01;30.88;;;15.95;;
25511;SDS011;13414;44.534;18.700;2022-12-18T12:43:35;32.25;;;18.52;;
25511;SDS011;13414;44.534;18.700;2022-12-18T12:46:04;35.75;;;18.38;;
25511;SDS011;13414;44.534;18.700;2022-12-18T12:48:35;33.42;;;18.95;;
25511;SDS011;13414;44.534;18.700;2022-12-18T12:51:10;34.97;;;18.92;;
25511;SDS011;13414;44.534;18.700;2022-12-18T12:53:41;31.73;;;17.80;;
25511;SDS011;13414;44.534;18.700;2022-12-18T12:56:10;38.50;;;17.88;;
25511;SDS011;13414;44.534;18.700;2022-12-18T12:58:44;108.38;;;63.33;;
25511;SDS011;13414;44.534;18.700;2022-12-18T13:01:20;31.35;;;18.35;;
25511;SDS011;13414;44.534;18.700;2022-12-18T13:03:55;32.42;;;18.75;;
25511;SDS011;13414;44.534;18.700;2022-12-18T13:06:35;35.95;;;20.02;;
25511;SDS011;13414;44.534;18.700;2022-12-18T13:09:06;32.35;;;18.98;;
25511;SDS011;13414;44.534;18.700;2022-12-18T13:11:37;34.22;;;19.70;;
25511;SDS011;13414;44.534;18.700;2022-12-18T13:14:27;36.50;;;20.48;;
25511;SDS011;13414;44.534;18.700;2022-12-18T13:19:42;37.92;;;21.98;;
25511;SDS011;13414;44.534;18.700;2022-12-18T13:22:21;34.47;;;21.85;;
25511;SDS011;13414;44.534;18.700;2022-12-18T13:24:50;61.63;;;33.58;;
25511;SDS011;13414;44.534;18.700;2022-12-18T13:30:43;43.25;;;25.85;;
25511;SDS011;13414;44.534;18.700;2022-12-18T13:33:30;46.60;;;26.75;;
25511;SDS011;13414;44.534;18.700;2022-12-18T13:39:20;47.10;;;28.60;;
25511;SDS011;13414;44.534;18.700;2022-12-18T13:41:51;55.10;;;30.65;;
25511;SDS011;13414;44.534;18.700;2022-12-18T13:44:24;48.08;;;28.70;;
25511;SDS011;13414;44.534;18.700;2022-12-18T13:46:56;46.70;;;27.30;;
25511;SDS011;13414;44.534;18.700;2022-12-18T13:49:25;51.60;;;26.25;;
25511;SDS011;13414;44.534;18.700;2022-12-18T13:51:58;48.65;;;28.70;;
25511;SDS011;13414;44.534;18.700;2022-12-18T13:54:29;48.95;;;28.88;;
25511;SDS011;13414;44.534;18.700;2022-12-18T13:57:00;53.78;;;29.60;;
25511;SDS011;13414;44.534;18.700;2022-12-18T13:59:33;48.30;;;28.35;;
25511;SDS011;13414;44.534;18.700;2022-12-18T14:02:11;55.17;;;30.10;;
25511;SDS011;13414;44.534;18.700;2022-12-18T14:04:44;51.05;;;30.67;;
25511;SDS011;13414;44.534;18.700;2022-12-18T14:07:13;53.28;;;32.65;;
25511;SDS011;13414;44.534;18.700;2022-12-18T14:09:42;57.30;;;32.53;;
25511;SDS011;13414;44.534;18.700;2022-12-18T14:12:14;54.58;;;31.42;;
25511;SDS011;13414;44.534;18.700;2022-12-18T14:15:01;58.17;;;35.72;;
25511;SDS011;13414;44.534;18.700;2022-12-18T14:17:32;62.03;;;37.92;;
25511;SDS011;13414;44.534;18.700;2022-12-18T14:20:00;94.97;;;57.22;;
25511;SDS011;13414;44.534;18.700;2022-12-18T14:22:27;65.10;;;38.63;;
25511;SDS011;13414;44.534;18.700;2022-12-18T14:25:14;54.78;;;31.75;;
25511;SDS011;13414;44.534;18.700;2022-12-18T14:27:44;64.30;;;35.08;;
25511;SDS011;13414;44.534;18.700;2022-12-18T14:30:23;68.35;;;36.95;;
25511;SDS011;13414;44.534;18.700;2022-12-18T14:33:03;59.63;;;34.13;;
25511;SDS011;13414;44.534;18.700;2022-12-18T14:35:32;58.85;;;34.63;;
25511;SDS011;13414;44.534;18.700;2022-12-18T14:38:10;62.55;;;37.33;;
25511;SDS011;13414;44.534;18.700;2022-12-18T14:40:51;61.97;;;37.25;;
25511;SDS011;13414;44.534;18.700;2022-12-18T14:43:20;58.33;;;36.92;;
25511;SDS011;13414;44.534;18.700;2022-12-18T14:45:47;83.75;;;51.30;;
25511;SDS011;13414;44.534;18.700;2022-12-18T14:48:18;77.13;;;44.83;;
25511;SDS011;13414;44.534;18.700;2022-12-18T14:50:54;64.90;;;37.72;;